Time,TemperatureF,DewpointF,PressureIn,WindDirection,WindDirectionDegrees,WindSpeedMPH,WindSpeedGustMPH,Humidity,HourlyPrecipIn,Conditions,Clouds,dailyrainin,SolarRadiationWatts/m^2,SoftwareType,DateUTC
2013-07-22 00:00:00,57.0,39.0,-100.00,SSE,159,2.0,3.0,51,-99.99,,,-99.99,0.000000,,2013-07-22 06:00:00,
2013-07-22 00:52:00,57.0,39.0,-100.00,SSE,159,2.0,3.0,51,-99.99,,,-99.99,0.000000,,2013-07-22 06:52:00,
2013-07-22 01:00:00,56.0,-99.9,-100.00,North,-999,-999.0,-999.0,-999,-99.99,,,0.00,,,2013-07-22 07:00:00,
2013-07-22 01:53:00,56.0,-99.9,-100.00,North,-999,-999.0,-999.0,-999,-99.99,,,0.00,,,2013-07-22 07:53:00,
2013-07-22 02:00:00,54.0,38.0,-100.00,SSE,154,2.0,3.0,55,-99.99,,,0.00,0.000000,,2013-07-22 08:00:00,
2013-07-22 02:52:00,54.0,38.0,-100.00,SSE,154,2.0,3.0,55,-99.99,,,0.00,0.000000,,2013-07-22 08:52:00,
2013-07-22 03:00:00,54.0,40.0,-100.00,SSE,157,2.0,3.0,58,-99.99,,,0.00,0.000000,,2013-07-22 09:00:00,
2013-07-22 03:52:00,54.0,40.0,-100.00,SSE,157,2.0,3.0,58,-99.99,,,0.00,0.000000,,2013-07-22 09:52:00,
2013-07-22 04:00:00,53.0,39.0,-100.00,SSE,155,2.0,3.0,58,-99.99,,,0.00,0.000000,,2013-07-22 10:00:00,
2013-07-22 04:53:00,53.0,39.0,-100.00,SSE,155,2.0,3.0,58,-99.99,,,0.00,0.000000,,2013-07-22 10:53:00,
2013-07-22 05:00:00,52.0,39.0,-100.00,SSE,154,2.0,3.0,61,-99.99,,,0.00,0.000000,,2013-07-22 11:00:00,
2013-07-22 05:52:00,52.0,39.0,-100.00,SSE,154,2.0,3.0,61,-99.99,,,0.00,0.000000,,2013-07-22 11:52:00,
2013-07-22 06:00:00,51.0,40.0,-100.00,SSE,154,2.0,3.0,64,-99.99,,,0.00,0.000000,,2013-07-22 12:00:00,
2013-07-22 06:53:00,51.0,40.0,-100.00,SSE,154,2.0,3.0,64,-99.99,,,0.00,0.000000,,2013-07-22 12:53:00,
2013-07-22 07:00:00,52.0,-99.9,-100.00,North,-999,-999.0,-999.0,-999,-99.99,,,0.00,,,2013-07-22 13:00:00,
2013-07-22 08:00:00,57.0,46.0,-100.00,SE,145,1.0,2.0,67,-99.99,,,0.00,102.300003,,2013-07-22 14:00:00,
2013-07-22 08:53:00,57.0,46.0,-100.00,SE,145,1.0,2.0,67,-99.99,,,0.00,102.300003,,2013-07-22 14:53:00,
2013-07-22 09:00:00,62.0,48.0,-100.00,NNE,24,0.0,3.0,59,-99.99,,,0.00,110.199997,,2013-07-22 15:00:00,
2013-07-22 09:52:00,62.0,48.0,-100.00,NNE,24,0.0,3.0,59,-99.99,,,0.00,110.199997,,2013-07-22 15:52:00,
2013-07-22 10:00:00,65.0,45.0,-100.00,North,355,1.0,3.0,47,-99.99,,,0.00,95.199997,,2013-07-22 16:00:00,
2013-07-22 11:00:00,68.0,44.0,-100.00,NNW,340,1.0,5.0,42,-99.99,,,0.00,229.600006,,2013-07-22 17:00:00,
2013-07-22 11:52:00,68.0,44.0,-100.00,NNW,340,1.0,5.0,42,-99.99,,,0.00,229.600006,,2013-07-22 17:52:00,
2013-07-22 12:00:00,72.0,40.0,-100.00,NNW,345,1.0,4.0,32,-99.99,,,0.00,450.899994,,2013-07-22 18:00:00,
2013-07-22 12:59:00,72.0,40.0,-100.00,NNW,345,1.0,4.0,32,-99.99,,,0.00,450.899994,,2013-07-22 18:59:00,
2013-07-22 13:00:00,74.0,32.0,-100.00,NNW,330,2.0,4.0,21,-99.99,,,0.00,,,2013-07-22 19:00:00,
2013-07-22 13:55:00,74.0,32.0,-100.00,NNW,330,2.0,4.0,21,-99.99,,,0.00,,,2013-07-22 19:55:00,
2013-07-22 14:00:00,71.0,30.0,-100.00,NNW,344,1.0,5.0,22,-99.99,,,0.00,685.299988,,2013-07-22 20:00:00,
2013-07-22 14:52:00,71.0,30.0,-100.00,NNW,344,1.0,5.0,22,-99.99,,,0.00,685.299988,,2013-07-22 20:52:00,
2013-07-22 15:00:00,72.0,32.0,-100.00,East,84,0.0,3.0,23,-99.99,,,0.00,222.500000,,2013-07-22 21:00:00,
2013-07-22 15:53:00,72.0,32.0,-100.00,East,84,0.0,3.0,23,-99.99,,,0.00,222.500000,,2013-07-22 21:53:00,
2013-07-22 16:00:00,71.0,31.0,-100.00,NE,54,1.0,7.0,23,-99.99,,,-99.99,564.400024,,2013-07-22 22:00:00,
2013-07-22 16:52:00,71.0,31.0,-100.00,NE,54,1.0,7.0,23,-99.99,,,-99.99,564.400024,,2013-07-22 22:52:00,
2013-07-22 17:00:00,71.0,33.0,-100.00,ENE,64,1.0,4.0,24,-99.99,,,0.00,392.600006,,2013-07-22 23:00:00,
2013-07-22 18:00:00,67.0,31.0,-100.00,North,6,0.0,2.0,26,-99.99,,,0.00,78.800003,,2013-07-23 00:00:00,
2013-07-22 18:52:00,67.0,31.0,-100.00,North,6,0.0,2.0,26,-99.99,,,0.00,78.800003,,2013-07-23 00:52:00,
2013-07-22 19:00:00,64.0,35.0,-100.00,SSE,167,1.0,2.0,34,-99.99,,,0.00,10.400000,,2013-07-23 01:00:00,
2013-07-22 19:44:00,64.0,35.0,-100.00,SSE,167,1.0,2.0,34,-99.99,,,0.00,10.400000,,2013-07-23 01:44:00,
2013-07-22 19:53:00,64.0,35.0,-100.00,SSE,167,1.0,2.0,34,-99.99,,,0.00,10.400000,,2013-07-23 01:53:00,
2013-07-22 20:00:00,64.0,35.0,-100.00,SSE,148,1.0,2.0,34,-99.99,,,0.00,8.200000,,2013-07-23 02:00:00,
2013-07-22 20:53:00,64.0,35.0,-100.00,SSE,148,1.0,2.0,34,-99.99,,,0.00,8.200000,,2013-07-23 02:53:00,
2013-07-22 21:00:00,63.0,34.0,-100.00,East,89,0.0,1.0,34,-99.99,,,0.00,0.300000,,2013-07-23 03:00:00,
2013-07-22 21:52:00,63.0,34.0,-100.00,East,89,0.0,1.0,34,-99.99,,,0.00,0.300000,,2013-07-23 03:52:00,
2013-07-22 22:00:00,62.0,34.0,-100.00,ESE,113,0.0,2.0,36,-99.99,,,0.00,0.000000,,2013-07-23 04:00:00,
2013-07-22 22:53:00,62.0,34.0,-100.00,ESE,113,0.0,2.0,36,-99.99,,,0.00,0.000000,,2013-07-23 04:53:00,
2013-07-22 23:00:00,59.0,37.0,-100.00,SSE,152,2.0,3.0,43,-99.99,,,0.00,0.000000,,2013-07-23 05:00:00,
2013-07-22 23:44:00,60.0,37.0,-100.00,SSE,152,2.0,3.0,43,-99.99,,,0.00,0.000000,,2013-07-23 05:44:00,
2013-07-22 23:52:00,59.0,37.0,-100.00,SSE,152,2.0,3.0,43,-99.99,,,0.00,0.000000,,2013-07-23 05:52:00,